createdAt,value
2018-09-17T00:01:39.365Z,10.38
2018-09-17T00:04:07.412Z,9.15
2018-09-17T00:06:35.454Z,10.65
2018-09-17T00:09:04.040Z,9.73
2018-09-17T00:11:32.076Z,10.70
2018-09-17T00:14:00.128Z,9.07
2018-09-17T00:16:28.206Z,9.13
2018-09-17T00:18:56.248Z,9.88
2018-09-17T00:21:24.277Z,8.03
2018-09-17T00:23:52.369Z,7.50
2018-09-17T00:26:20.421Z,7.85
2018-09-17T00:28:48.472Z,9.00
2018-09-17T00:31:16.480Z,8.63
2018-09-17T00:33:44.492Z,8.38
2018-09-17T00:36:12.512Z,7.80
2018-09-17T00:38:40.542Z,9.00
2018-09-17T00:41:08.569Z,8.50
2018-09-17T00:43:36.724Z,6.72
2018-09-17T00:46:04.757Z,6.58
2018-09-17T00:48:32.763Z,6.72
2018-09-17T00:51:00.808Z,7.30
2018-09-17T00:53:28.824Z,7.87
2018-09-17T00:55:56.861Z,6.15
2018-09-17T00:58:24.881Z,5.72
2018-09-17T01:00:52.908Z,6.80
2018-09-17T01:03:20.960Z,5.90
2018-09-17T01:05:49.023Z,6.00
2018-09-17T01:08:17.041Z,5.67
2018-09-17T01:10:45.059Z,6.47
2018-09-17T01:13:13.280Z,5.87
2018-09-17T01:15:41.316Z,5.80
2018-09-17T01:18:09.356Z,6.20
2018-09-17T01:20:37.393Z,7.17
2018-09-17T01:23:05.397Z,5.87
2018-09-17T01:25:33.435Z,6.33
2018-09-17T01:28:01.456Z,6.45
2018-09-17T01:30:29.550Z,8.37
2018-09-17T01:32:57.508Z,7.80
2018-09-17T01:35:25.551Z,6.42
2018-09-17T01:37:53.552Z,7.55
2018-09-17T01:40:21.580Z,7.57
2018-09-17T01:42:49.572Z,8.25
2018-09-17T01:45:17.624Z,6.80
2018-09-17T01:47:45.645Z,7.20
2018-09-17T01:50:13.664Z,7.80
2018-09-17T01:52:41.713Z,7.45
2018-09-17T01:55:09.713Z,7.25
2018-09-17T01:57:37.721Z,7.95
2018-09-17T02:00:05.752Z,8.87
2018-09-17T02:02:33.756Z,8.15
2018-09-17T02:05:01.792Z,8.25
2018-09-17T02:07:29.800Z,8.10
2018-09-17T02:09:57.885Z,9.83
2018-09-17T02:12:25.816Z,8.40
2018-09-17T02:14:53.839Z,8.90
2018-09-17T02:17:22.130Z,8.20
2018-09-17T02:19:50.161Z,9.88
2018-09-17T02:22:18.192Z,8.60
2018-09-17T02:24:46.195Z,9.28
2018-09-17T02:27:14.219Z,8.40
2018-09-17T02:29:42.256Z,9.20
2018-09-17T02:32:10.309Z,9.40
2018-09-17T02:34:38.327Z,9.48
2018-09-17T02:37:06.363Z,9.00
2018-09-17T02:39:34.416Z,9.48
2018-09-17T02:42:02.497Z,9.50
2018-09-17T02:44:30.546Z,9.55
2018-09-17T02:46:58.593Z,9.55
2018-09-17T02:49:26.623Z,9.58
2018-09-17T02:51:54.660Z,10.90
2018-09-17T02:54:22.699Z,9.60
2018-09-17T02:56:50.749Z,10.10
2018-09-17T02:59:18.780Z,9.25
2018-09-17T03:01:46.835Z,9.95
2018-09-17T03:04:14.871Z,10.03
2018-09-17T03:06:43.186Z,8.90
2018-09-17T03:09:11.228Z,9.20
2018-09-17T03:11:39.285Z,9.10
2018-09-17T03:14:07.317Z,9.10
2018-09-17T03:16:45.356Z,9.88
2018-09-17T03:19:13.396Z,9.23
2018-09-17T03:21:41.451Z,9.90
2018-09-17T03:24:09.467Z,9.30
2018-09-17T03:26:37.512Z,9.53
2018-09-17T03:29:05.649Z,9.68
2018-09-17T03:31:33.692Z,9.50
2018-09-17T03:34:01.731Z,9.40
2018-09-17T03:36:29.781Z,9.68
2018-09-17T03:38:57.804Z,9.90
2018-09-17T03:41:25.856Z,10.08
2018-09-17T03:43:53.924Z,9.55
2018-09-17T03:46:22.102Z,9.70
2018-09-17T03:48:49.989Z,9.08
2018-09-17T03:51:18.240Z,8.63
2018-09-17T03:53:46.280Z,9.50
2018-09-17T03:56:14.333Z,9.85
2018-09-17T03:58:42.341Z,9.83
2018-09-17T04:01:10.408Z,9.75
2018-09-17T04:03:38.456Z,9.30
2018-09-17T04:06:06.248Z,11.18
2018-09-17T04:08:34.304Z,9.75
2018-09-17T04:11:02.492Z,9.70
2018-09-17T04:13:30.551Z,9.68
2018-09-17T04:15:58.606Z,9.53
2018-09-17T04:18:26.633Z,11.05
2018-09-17T04:20:54.679Z,11.25
2018-09-17T04:23:27.968Z,9.53
2018-09-17T04:25:56.013Z,11.97
2018-09-17T04:28:24.065Z,10.20
2018-09-17T04:30:52.128Z,10.37
2018-09-17T04:33:20.157Z,9.55
2018-09-17T04:35:48.220Z,10.60
2018-09-17T04:38:16.273Z,10.63
2018-09-17T04:40:44.301Z,9.98
2018-09-17T04:43:12.361Z,11.88
2018-09-17T04:45:40.405Z,11.50
2018-09-17T04:48:08.432Z,10.70
2018-09-17T04:50:36.520Z,10.40
2018-09-17T04:53:04.573Z,11.33
2018-09-17T04:55:32.616Z,10.90
2018-09-17T04:58:00.664Z,11.73
2018-09-17T05:00:28.729Z,10.30
2018-09-17T05:02:56.780Z,14.97
2018-09-17T05:05:24.972Z,11.55
2018-09-17T05:07:53.016Z,13.20
2018-09-17T05:10:21.053Z,12.53
2018-09-17T05:12:49.158Z,12.20
2018-09-17T05:15:17.160Z,13.20
2018-09-17T05:17:45.205Z,12.43
2018-09-17T05:20:13.253Z,12.10
2018-09-17T05:22:41.308Z,13.22
2018-09-17T05:25:09.353Z,12.40
2018-09-17T05:27:37.514Z,13.88
2018-09-17T05:30:06.073Z,15.05
2018-09-17T05:32:34.132Z,11.88
2018-09-17T05:35:02.170Z,12.37
2018-09-17T05:37:30.180Z,12.77
2018-09-17T05:39:58.220Z,13.55
2018-09-17T05:42:26.269Z,12.43
2018-09-17T05:44:54.302Z,16.12
2018-09-17T05:47:22.848Z,16.15
2018-09-17T05:49:50.865Z,18.57
2018-09-17T05:52:18.885Z,14.65
2018-09-17T05:54:46.936Z,20.27
2018-09-17T05:57:14.957Z,20.32
2018-09-17T05:59:43.079Z,21.17
2018-09-17T06:02:11.046Z,17.70
2018-09-17T06:04:39.080Z,17.45
2018-09-17T06:07:07.141Z,14.28
2018-09-17T06:09:35.183Z,14.30
2018-09-17T06:12:03.308Z,16.37
2018-09-17T06:14:31.385Z,20.15
2018-09-17T06:16:59.425Z,18.62
2018-09-17T06:19:28.048Z,15.90
2018-09-17T06:21:56.288Z,19.13
2018-09-17T06:24:24.327Z,17.73
2018-09-17T06:26:52.368Z,16.95
2018-09-17T06:29:20.408Z,15.35
2018-09-17T06:31:48.441Z,17.00
2018-09-17T06:34:16.468Z,15.98
2018-09-17T06:36:44.521Z,14.25
2018-09-17T06:39:12.542Z,14.07
2018-09-17T06:41:40.631Z,14.37
2018-09-17T06:44:08.821Z,13.90
2018-09-17T06:46:36.863Z,14.50
2018-09-17T06:49:04.888Z,15.07
2018-09-17T06:51:32.915Z,15.00
2018-09-17T06:54:00.939Z,16.48
2018-09-17T06:56:28.996Z,17.10
2018-09-17T06:58:57.024Z,15.55
2018-09-17T07:01:25.044Z,16.50
2018-09-17T07:03:53.075Z,18.95
2018-09-17T07:06:21.204Z,15.38
2018-09-17T07:08:49.319Z,15.63
2018-09-17T07:11:17.360Z,13.78
2018-09-17T07:13:45.821Z,17.87
2018-09-17T07:16:13.832Z,18.97
2018-09-17T07:18:41.852Z,15.25
2018-09-17T07:23:54.575Z,15.83
2018-09-17T07:26:22.616Z,15.35
2018-09-17T07:28:50.660Z,20.20
2018-09-17T07:31:18.712Z,19.77
2018-09-17T07:33:46.804Z,17.63
2018-09-17T07:36:14.862Z,17.85
2018-09-17T07:38:42.887Z,19.73
2018-09-17T07:41:10.941Z,18.80
2018-09-17T07:43:39.089Z,19.42
2018-09-17T07:46:07.191Z,23.22
2018-09-17T07:48:35.256Z,19.12
2018-09-17T07:53:10.139Z,41.10
2018-09-17T07:55:38.214Z,22.05
2018-09-17T07:58:06.183Z,18.73
2018-09-17T08:00:34.208Z,17.80
2018-09-17T08:03:02.245Z,20.57
2018-09-17T08:05:30.343Z,21.10
2018-09-17T08:07:58.356Z,16.42
2018-09-17T08:10:26.704Z,16.70
2018-09-17T08:12:54.763Z,16.27
2018-09-17T08:18:05.296Z,16.20
2018-09-17T08:20:33.369Z,17.52
2018-09-17T08:23:01.616Z,15.08
2018-09-17T08:25:29.722Z,19.07
2018-09-17T08:27:58.109Z,17.23
2018-09-17T08:30:26.193Z,14.25
2018-09-17T08:32:54.472Z,13.83
2018-09-17T08:35:22.561Z,11.90
2018-09-17T08:37:50.701Z,16.75
2018-09-17T08:40:18.805Z,12.55
2018-09-17T08:42:46.839Z,12.67
2018-09-17T08:45:14.992Z,12.28
2018-09-17T08:47:43.385Z,7.58
2018-09-17T08:50:11.421Z,8.30
2018-09-17T08:52:39.479Z,9.70
2018-09-17T08:55:14.876Z,8.50
2018-09-17T08:57:48.356Z,7.33
2018-09-17T09:00:19.345Z,7.15
2018-09-17T09:02:52.814Z,7.08
2018-09-17T09:05:26.302Z,8.73
2018-09-17T09:07:55.527Z,7.15
2018-09-17T09:10:29.075Z,8.85
2018-09-17T09:13:02.887Z,7.45
2018-09-17T09:15:36.521Z,7.00
2018-09-17T09:18:05.625Z,7.23
2018-09-17T09:20:33.816Z,7.67
2018-09-17T09:23:01.861Z,6.20
2018-09-17T09:25:30.057Z,8.73
2018-09-17T09:27:58.130Z,7.70
2018-09-17T09:30:26.200Z,8.58
2018-09-17T09:32:54.371Z,6.45
2018-09-17T09:35:22.727Z,6.53
2018-09-17T09:37:50.940Z,7.17
2018-09-17T09:40:18.964Z,6.90
2018-09-17T09:42:47.056Z,6.03
2018-09-17T09:45:16.050Z,18.90
2018-09-17T09:47:44.502Z,7.00
2018-09-17T09:50:12.528Z,10.33
2018-09-17T09:52:40.575Z,6.37
2018-09-17T09:55:08.571Z,7.55
2018-09-17T09:57:36.612Z,6.37
2018-09-17T10:00:05.936Z,6.17
2018-09-17T10:02:39.568Z,5.62
2018-09-17T10:05:07.618Z,7.20
2018-09-17T10:07:35.669Z,5.65
2018-09-17T10:11:11.948Z,6.78
2018-09-17T10:13:45.588Z,6.70
2018-09-17T10:16:16.300Z,6.60
2018-09-17T10:18:49.968Z,7.25
2018-09-17T10:21:18.007Z,7.55
2018-09-17T10:23:46.409Z,7.67
2018-09-17T10:26:14.441Z,6.55
2018-09-17T10:28:42.644Z,10.90
2018-09-17T10:31:10.651Z,6.33
2018-09-17T10:33:39.001Z,6.03
2018-09-17T10:36:07.367Z,6.37
2018-09-17T10:38:35.388Z,7.72
2018-09-17T10:41:03.423Z,8.50
2018-09-17T10:43:31.432Z,5.90
2018-09-17T10:45:59.443Z,6.28
2018-09-17T10:48:27.468Z,5.80
2018-09-17T10:50:55.505Z,6.70
2018-09-17T10:53:23.559Z,8.83
2018-09-17T10:55:51.587Z,5.75
2018-09-17T10:58:19.614Z,6.80
2018-09-17T11:00:47.629Z,6.00
2018-09-17T11:03:15.652Z,5.25
2018-09-17T11:05:43.664Z,4.77
2018-09-17T11:08:11.717Z,4.97
2018-09-17T11:10:39.742Z,6.57
2018-09-17T11:13:07.772Z,5.08
2018-09-17T11:15:41.252Z,4.85
2018-09-17T11:18:09.280Z,6.35
2018-09-17T11:20:37.335Z,4.90
2018-09-17T11:23:05.368Z,6.90
2018-09-17T11:25:33.376Z,3.98
2018-09-17T11:28:01.396Z,6.45
2018-09-17T11:30:29.508Z,4.40
2018-09-17T11:32:57.532Z,4.27
2018-09-17T11:35:25.580Z,3.40
2018-09-17T11:37:53.614Z,4.80
2018-09-17T11:40:21.644Z,5.45
2018-09-17T11:42:49.653Z,6.62
2018-09-17T11:45:17.780Z,6.30
2018-09-17T11:47:45.792Z,5.03
2018-09-17T11:50:13.833Z,6.35
2018-09-17T11:52:41.875Z,3.70
2018-09-17T11:55:09.938Z,5.60
2018-09-17T11:57:37.968Z,4.92
2018-09-17T12:00:06.045Z,6.37
2018-09-17T12:02:37.527Z,4.67
2018-09-17T12:05:06.847Z,4.65
2018-09-17T12:07:42.204Z,5.87
2018-09-17T12:10:11.168Z,3.72
2018-09-17T12:12:39.524Z,4.60
2018-09-17T12:15:08.123Z,4.60
2018-09-17T12:17:36.587Z,3.52
2018-09-17T12:20:04.678Z,3.50
2018-09-17T12:22:32.689Z,3.83
2018-09-17T12:25:00.716Z,4.30
2018-09-17T12:27:28.728Z,6.00
2018-09-17T12:29:56.744Z,2.80
2018-09-17T12:32:24.753Z,4.70
2018-09-17T12:34:52.774Z,4.35
2018-09-17T12:37:20.775Z,4.08
2018-09-17T12:39:48.800Z,4.92
2018-09-17T12:42:16.788Z,4.47
2018-09-17T12:44:44.801Z,4.20
2018-09-17T12:47:12.821Z,5.65
2018-09-17T12:49:40.848Z,4.00
2018-09-17T12:52:08.853Z,3.55
2018-09-17T12:54:36.913Z,5.67
2018-09-17T12:57:04.888Z,2.80
2018-09-17T12:59:32.917Z,3.67
2018-09-17T13:02:00.942Z,4.97
2018-09-17T13:04:28.974Z,5.12
2018-09-17T13:06:56.972Z,3.20
2018-09-17T13:09:24.993Z,4.45
2018-09-17T13:11:53.004Z,4.25
2018-09-17T13:14:21.076Z,3.20
2018-09-17T13:16:49.084Z,6.85
2018-09-17T13:19:17.107Z,5.22
2018-09-17T13:21:45.128Z,5.75
2018-09-17T13:24:13.162Z,5.12
2018-09-17T13:26:41.172Z,4.72
2018-09-17T13:29:09.200Z,3.87
2018-09-17T13:31:37.243Z,3.77
2018-09-17T13:34:05.268Z,3.90
2018-09-17T13:36:33.301Z,5.77
2018-09-17T13:39:01.333Z,5.70
2018-09-17T13:41:29.372Z,6.60
2018-09-17T13:43:57.408Z,3.72
2018-09-17T13:46:25.448Z,5.85
2018-09-17T13:48:53.484Z,3.33
2018-09-17T13:51:21.512Z,5.30
2018-09-17T13:53:49.622Z,5.60
2018-09-17T13:56:17.621Z,5.60
2018-09-17T13:58:45.659Z,4.50
2018-09-17T14:01:13.686Z,6.72
2018-09-17T14:03:41.733Z,4.87
2018-09-17T14:06:09.773Z,5.22
2018-09-17T14:08:37.806Z,3.37
2018-09-17T14:11:06.025Z,6.53
2018-09-17T14:13:34.031Z,2.63
2018-09-17T14:16:06.872Z,4.60
2018-09-17T14:18:35.132Z,2.80
2018-09-17T14:21:03.205Z,2.70
2018-09-17T14:23:31.204Z,2.80
2018-09-17T14:25:59.252Z,4.60
2018-09-17T14:28:27.285Z,6.67
2018-09-17T14:30:55.332Z,5.60
2018-09-17T14:33:28.953Z,4.20
2018-09-17T14:35:57.166Z,5.47
2018-09-17T14:38:25.331Z,5.70
2018-09-17T14:40:53.582Z,7.40
2018-09-17T14:43:21.553Z,3.60
2018-09-17T14:45:49.579Z,4.90
2018-09-17T14:48:17.628Z,4.28
2018-09-17T14:50:45.640Z,4.95
2018-09-17T14:53:13.712Z,5.30
2018-09-17T14:55:41.720Z,3.20
2018-09-17T14:58:09.757Z,5.58
2018-09-17T15:00:37.877Z,4.70
2018-09-17T15:03:06.035Z,3.52
2018-09-17T15:05:34.068Z,6.30
2018-09-17T15:08:02.230Z,4.55
2018-09-17T15:10:30.212Z,5.37
2018-09-17T15:12:58.424Z,3.30
2018-09-17T15:15:26.515Z,4.10
2018-09-17T15:17:54.485Z,4.10
2018-09-17T15:20:22.768Z,3.60
2018-09-17T15:22:50.727Z,3.03
2018-09-17T15:25:18.770Z,6.70
2018-09-17T15:27:46.931Z,4.67
2018-09-17T15:30:14.960Z,3.83
2018-09-17T15:32:43.196Z,7.53
2018-09-17T15:35:11.256Z,3.47
2018-09-17T15:37:39.251Z,3.52
2018-09-17T15:40:07.488Z,3.90
2018-09-17T15:42:35.449Z,3.10
2018-09-17T15:45:03.487Z,4.00
2018-09-17T15:47:31.536Z,6.33
2018-09-17T15:49:59.579Z,4.93
2018-09-17T15:52:27.606Z,5.43
2018-09-17T15:54:55.645Z,3.90
2018-09-17T15:57:23.780Z,3.30
2018-09-17T15:59:51.804Z,5.95
2018-09-17T16:02:19.856Z,4.40
2018-09-17T16:04:47.889Z,3.52
2018-09-17T16:07:15.913Z,7.03
2018-09-17T16:09:43.947Z,3.42
2018-09-17T16:12:12.006Z,4.12
2018-09-17T16:14:40.024Z,4.33
2018-09-17T16:17:08.053Z,4.80
2018-09-17T16:19:36.092Z,6.23
2018-09-17T16:22:04.121Z,3.60
2018-09-17T16:24:32.164Z,5.00
2018-09-17T16:27:00.232Z,4.50
2018-09-17T16:31:30.034Z,5.40
2018-09-17T16:33:58.053Z,5.50
2018-09-17T16:36:26.080Z,4.20
2018-09-17T16:38:54.108Z,6.75
2018-09-17T16:41:22.142Z,6.50
2018-09-17T16:43:50.190Z,6.28
2018-09-17T16:46:18.208Z,10.18
2018-09-17T16:48:46.236Z,4.78
2018-09-17T16:51:14.307Z,4.85
2018-09-17T16:53:42.344Z,7.30
2018-09-17T16:56:10.321Z,5.83
2018-09-17T16:58:38.344Z,6.87
2018-09-17T17:01:06.355Z,8.43
2018-09-17T17:03:34.385Z,9.40
2018-09-17T17:06:02.428Z,7.55
2018-09-17T17:08:30.460Z,13.43
2018-09-17T17:10:58.635Z,8.13
2018-09-17T17:13:26.528Z,10.38
2018-09-17T17:15:54.563Z,11.25
2018-09-17T17:18:22.560Z,14.40
2018-09-17T17:20:50.560Z,11.65
2018-09-17T17:23:18.572Z,17.55
2018-09-17T17:25:46.644Z,12.53
2018-09-17T17:28:14.715Z,9.68
2018-09-17T17:30:42.709Z,18.07
2018-09-17T17:33:10.807Z,14.50
2018-09-17T17:35:38.992Z,11.80
2018-09-17T17:38:07.012Z,19.15
2018-09-17T17:40:35.165Z,15.93
2018-09-17T17:43:03.050Z,14.15
2018-09-17T17:45:31.078Z,16.55
2018-09-17T17:47:59.147Z,12.53
2018-09-17T17:50:27.152Z,9.08
2018-09-17T17:52:55.172Z,12.18
2018-09-17T17:55:23.192Z,10.72
2018-09-17T17:57:51.239Z,11.00
2018-09-17T18:00:19.243Z,8.58
2018-09-17T18:02:47.277Z,14.28
2018-09-17T18:05:15.316Z,15.35
2018-09-17T18:07:43.345Z,14.40
2018-09-17T18:10:11.387Z,20.23
2018-09-17T18:12:39.414Z,17.05
2018-09-17T18:15:07.522Z,17.00
2018-09-17T18:17:35.484Z,15.65
2018-09-17T18:20:03.527Z,16.90
2018-09-17T18:22:31.560Z,20.13
2018-09-17T18:24:59.588Z,22.32
2018-09-17T18:27:27.596Z,20.52
2018-09-17T18:29:55.629Z,15.93
2018-09-17T18:32:23.644Z,19.50
2018-09-17T18:34:51.676Z,28.92
2018-09-17T18:37:19.706Z,24.05
2018-09-17T18:39:47.884Z,19.87
2018-09-17T18:42:15.813Z,22.93
2018-09-17T18:44:43.952Z,21.73
2018-09-17T18:47:11.961Z,23.30
2018-09-17T18:49:40.088Z,21.83
2018-09-17T18:52:08.100Z,19.25
2018-09-17T18:54:36.120Z,20.48
2018-09-17T18:57:04.220Z,22.25
2018-09-17T18:59:32.164Z,21.97
2018-09-17T19:02:00.197Z,21.68
2018-09-17T19:04:28.238Z,20.27
2018-09-17T19:06:56.261Z,20.43
2018-09-17T19:09:29.665Z,22.50
2018-09-17T19:11:57.762Z,20.35
2018-09-17T19:14:31.116Z,22.13
2018-09-17T19:16:59.146Z,20.17
2018-09-17T19:19:27.154Z,25.88
2018-09-17T19:22:00.964Z,20.85
2018-09-17T19:24:28.761Z,27.87
2018-09-17T19:26:56.792Z,28.10
2018-09-17T19:29:24.825Z,23.12
2018-09-17T19:31:52.904Z,25.25
2018-09-17T19:34:20.876Z,30.75
2018-09-17T19:36:48.920Z,28.32
2018-09-17T19:39:22.509Z,25.00
2018-09-17T19:41:50.607Z,28.85
2018-09-17T19:44:18.626Z,26.85
2018-09-17T19:46:46.612Z,28.70
2018-09-17T19:49:14.645Z,28.23
2018-09-17T19:51:48.252Z,30.88
2018-09-17T19:54:16.312Z,33.85
2018-09-17T19:56:44.328Z,33.60
2018-09-17T19:59:17.845Z,33.50
2018-09-17T20:01:45.862Z,32.20
2018-09-17T20:04:19.277Z,30.70
2018-09-17T20:06:47.298Z,21.77
2018-09-17T20:09:15.312Z,22.50
2018-09-17T20:11:47.123Z,26.12
2018-09-17T20:14:15.149Z,33.00
2018-09-17T20:16:43.316Z,33.53
2018-09-17T20:19:11.638Z,25.95
2018-09-17T20:21:39.695Z,19.30
2018-09-17T20:24:07.722Z,18.55
2018-09-17T20:26:35.729Z,20.40
2018-09-17T20:29:03.780Z,22.48
2018-09-17T20:31:31.829Z,28.30
2018-09-17T20:33:59.855Z,28.65
2018-09-17T20:36:27.899Z,33.85
2018-09-17T20:38:55.980Z,28.30
2018-09-17T20:41:24.001Z,30.27
2018-09-17T20:43:52.033Z,25.12
2018-09-17T20:46:20.097Z,30.00
2018-09-17T20:48:48.229Z,26.42
2018-09-17T20:51:16.171Z,28.32
2018-09-17T20:53:44.209Z,29.83
2018-09-17T20:56:12.338Z,28.35
2018-09-17T20:58:40.280Z,25.25
2018-09-17T21:01:08.644Z,20.05
2018-09-17T21:03:36.549Z,16.60
2018-09-17T21:06:04.595Z,22.27
2018-09-17T21:08:32.687Z,19.42
2018-09-17T21:11:00.706Z,17.90
2018-09-17T21:13:28.807Z,19.27
2018-09-17T21:15:56.831Z,21.75
2018-09-17T21:18:24.900Z,24.20
2018-09-17T21:20:53.020Z,22.60
2018-09-17T21:23:21.068Z,21.85
2018-09-17T21:25:49.121Z,20.48
2018-09-17T21:28:17.176Z,19.90
2018-09-17T21:30:45.268Z,17.23
2018-09-17T21:33:13.301Z,13.97
2018-09-17T21:35:41.352Z,17.00
2018-09-17T21:38:09.433Z,15.03
2018-09-17T21:40:37.522Z,15.50
2018-09-17T21:43:05.559Z,13.65
2018-09-17T21:45:33.574Z,12.78
2018-09-17T21:48:01.673Z,10.93
2018-09-17T21:50:29.968Z,9.60
2018-09-17T21:52:58.021Z,12.23
2018-09-17T21:55:26.270Z,12.13
2018-09-17T21:57:54.603Z,10.15
2018-09-17T22:00:23.333Z,10.58
2018-09-17T22:02:51.813Z,10.90
2018-09-17T22:05:20.092Z,10.25
2018-09-17T22:07:48.595Z,10.08
2018-09-17T22:10:17.115Z,8.80
2018-09-17T22:12:45.178Z,9.55
2018-09-17T22:15:13.191Z,9.23
2018-09-17T22:17:41.216Z,9.50
2018-09-17T22:20:09.241Z,11.30
2018-09-17T22:22:37.296Z,8.70
2018-09-17T22:25:05.324Z,11.10
2018-09-17T22:27:33.356Z,11.30
2018-09-17T22:30:01.386Z,10.50
2018-09-17T22:32:29.436Z,9.90
2018-09-17T22:34:57.469Z,10.25
2018-09-17T22:37:25.491Z,9.00
2018-09-17T22:39:53.540Z,10.15
2018-09-17T22:42:21.691Z,7.80
2018-09-17T22:44:49.657Z,9.35
2018-09-17T22:47:17.686Z,8.53
2018-09-17T22:49:45.719Z,9.10
2018-09-17T22:52:13.772Z,8.48
2018-09-17T22:54:41.817Z,8.50
2018-09-17T22:57:09.864Z,10.10
2018-09-17T22:59:37.907Z,8.55
2018-09-17T23:02:05.944Z,9.60
2018-09-17T23:04:34.020Z,8.43
2018-09-17T23:07:02.144Z,10.08
2018-09-17T23:09:30.180Z,11.63
2018-09-17T23:11:58.224Z,14.80
2018-09-17T23:14:26.282Z,13.70
2018-09-17T23:16:54.320Z,12.98
2018-09-17T23:19:22.807Z,16.75
2018-09-17T23:21:50.903Z,19.73
2018-09-17T23:24:18.939Z,16.05
2018-09-17T23:26:46.982Z,14.07
2018-09-17T23:29:15.007Z,11.38
2018-09-17T23:31:43.047Z,10.10
2018-09-17T23:34:11.090Z,11.55
2018-09-17T23:36:39.191Z,9.45
2018-09-17T23:39:09.436Z,9.30
2018-09-17T23:41:37.713Z,9.80
2018-09-17T23:44:05.736Z,9.73
2018-09-17T23:46:34.053Z,10.50
2018-09-17T23:49:02.110Z,10.65
2018-09-17T23:51:30.103Z,9.00
2018-09-17T23:53:58.264Z,9.47
2018-09-17T23:56:26.264Z,8.78
2018-09-17T23:58:54.284Z,9.40
